RLSO2: Arkansas River, Ralston, OK

                                SHEF ID:       RLSO2     Arkansas River at Ralston, OK
STATION TYPE:
Regulating: Stage = 16.00, Flow = 78729

PRECIP STAGE STAGE(2) RIV-FLOW AIR-TEMP BAT-LOAD
in ft ft cfs F volt
Ccp-Rev Ccp-Rev Ccp-Rev Ccp-Rev Ccp-Rev Ccp-Rev
(America/Chicago)
03/21 00:00 0.00 3.74 3.76 794 68.54 12.70
03/21 01:00 0.00 3.73 3.76 784 64.94 12.70
03/21 02:00 0.00 3.72 3.75 774 62.60 12.69
03/21 03:00 0.00 3.72 3.75 774 59.54 12.67
03/21 04:00 0.00 3.71 3.75 765 57.74 12.67
03/21 05:00 0.00 3.71 3.74 765 56.12 12.67
03/21 06:00 0.00 3.70 3.73 755 53.96 12.65
03/21 07:00 0.00 3.71 3.73 765 52.70 12.65
03/21 08:00 0.00 3.70 3.73 755 54.32 12.63
03/21 09:00 0.00 3.69 3.72 745 66.38 12.65
03/21 10:00 0.00 3.67 3.71 726 77.72 12.82
03/21 11:00 0.00 3.67 3.70 726 83.66 13.02
03/21 12:00 0.00 3.67 3.69 726 94.46 13.05
03/21 13:00 0.00 3.66 3.69 717 97.88 13.05
03/21 14:00 0.00 3.66 3.68 717 98.60 13.03
03/21 15:00 0.00 3.66 3.66 717 99.14 13.00
03/21 16:00 0.00 3.58 3.68 645 99.14 12.97
03/21 17:00 0.00 3.61 3.67 671 98.24 12.79
03/21 18:00 0.00 3.61 3.67 671 96.98 12.76
03/21 19:00 0.00 3.64 3.67 699 93.74 12.75
03/21 20:00 0.00 3.64 3.67 699 87.44 12.73
03/21 21:00 0.00 3.64 3.67 699 82.58 12.73
03/21 22:00 0.00 3.64 3.67 699 79.88 12.72
03/21 23:00 0.00 3.63 3.67 689 78.44 12.71
Data processed at Sun 22Mar2026 04:21 GMT

NOTICE: If you are parsing this page

Please convert to using our Data API. Starting early 2026 we will be migrating to: https://water.usace.army.mil with modern pages rendered in JavaScript. When this migration completes you will no longer be able to scrape this page! CWMSDataAPI (CDA)

Timeseries IDs (TSIDs)

TSIDs used from left to right in the data table
RALS.Precip-Inc.Total.1Hour.1Hour.Ccp-Rev
RALS.Stage.Inst.1Hour.0.Ccp-Rev
RALS.Stage-Alt.Inst.1Hour.0.Ccp-Rev
RALS.Flow.Inst.1Hour.0.Ccp-Rev
RALS.Temp-Air.Inst.1Hour.0.Ccp-Rev
RALS.Volt-Battery Load.Inst.1Hour.0.Ccp-Rev

                            

All information presented herein is the property of the government of the United States of America and may be revised or deleted at any time without prior notice. Dissemination of this information without the expressed written consent of the Public Affairs Office, Tulsa District U.S. Army Corps of Engineers is strictly prohibited. These data are gathered electronically and, as presented, have NOT undergone any form of quality control. These data are NOT guaranteed to be valid or correct.